createdAt,value
2022-10-14T00:00:14.812Z,956.1169434
2022-10-14T00:01:45.711Z,956.0490723
2022-10-14T00:02:46.146Z,956.0882568
2022-10-14T00:03:46.661Z,956.0490723
2022-10-14T00:04:47.090Z,956.0751343
2022-10-14T00:05:47.670Z,956.1127319
2022-10-14T00:06:48.169Z,956.1013184
2022-10-14T00:07:48.673Z,956.1116943
2022-10-14T00:08:50.081Z,956.093811
2022-10-14T00:09:50.872Z,956.0808105
2022-10-14T00:10:51.375Z,956.0684204
2022-10-14T00:11:51.948Z,956.0529785
2022-10-14T00:12:52.461Z,956.0742188
2022-10-14T00:13:52.972Z,956.0507813
2022-10-14T00:14:53.492Z,956.0684204
2022-10-14T00:15:53.983Z,956.0513916
2022-10-14T00:16:54.484Z,956.0448608
2022-10-14T00:17:55.052Z,956.039978
2022-10-14T00:18:56.541Z,956.0562744
2022-10-14T00:19:57.073Z,956.0670166
2022-10-14T00:20:57.556Z,956.0203857
2022-10-14T00:21:58.053Z,956.0115356
2022-10-14T00:22:59.593Z,956.0027466
2022-10-14T00:24:01.053Z,956.0281982
2022-10-14T00:25:01.615Z,956.0281982
2022-10-14T00:26:02.079Z,956.0062256
2022-10-14T00:27:02.602Z,956.0248413
2022-10-14T00:28:03.115Z,956.0301514
2022-10-14T00:29:04.564Z,955.9990845
2022-10-14T00:30:05.171Z,955.9942017
2022-10-14T00:31:05.770Z,956.0154419
2022-10-14T00:32:06.243Z,956.027832
2022-10-14T00:33:06.768Z,956.0049438
2022-10-14T00:34:07.310Z,956.0042725
2022-10-14T00:35:07.814Z,955.9921875
2022-10-14T00:36:08.289Z,955.9465332
2022-10-14T00:37:08.802Z,955.9579468
2022-10-14T00:38:09.318Z,955.9432983
2022-10-14T00:39:10.487Z,955.9220581
2022-10-14T00:40:11.068Z,955.9523315
2022-10-14T00:41:11.569Z,955.9376831
2022-10-14T00:42:13.046Z,955.897522
2022-10-14T00:43:44.028Z,955.8897095
2022-10-14T00:44:44.504Z,955.9017334
2022-10-14T00:45:45.069Z,955.9246216
2022-10-14T00:46:45.575Z,955.9350586
2022-10-14T00:47:46.127Z,955.9285278
2022-10-14T00:48:47.256Z,955.9725952
2022-10-14T00:49:47.745Z,955.9660645
2022-10-14T00:50:48.232Z,955.9758301
2022-10-14T00:51:48.749Z,956.0117798
2022-10-14T00:52:49.291Z,955.9472046
2022-10-14T00:53:50.593Z,955.9109497
2022-10-14T00:54:51.086Z,955.8833008
2022-10-14T00:55:51.531Z,955.8649902
2022-10-14T00:56:52.099Z,955.888855
2022-10-14T00:57:52.611Z,955.8591309
2022-10-14T00:58:53.807Z,955.8731079
2022-10-14T00:59:54.366Z,955.8389282
2022-10-14T01:00:54.869Z,955.9084473
2022-10-14T01:01:55.323Z,955.8688965
2022-10-14T01:02:55.870Z,955.8649902
2022-10-14T01:03:56.329Z,955.8917236
2022-10-14T01:04:56.822Z,955.8845215
2022-10-14T01:05:57.324Z,955.8460693
2022-10-14T01:06:57.796Z,955.8379517
2022-10-14T01:07:58.282Z,955.8095093
2022-10-14T01:08:59.786Z,955.8242188
2022-10-14T01:10:00.273Z,955.8167114
2022-10-14T01:11:00.780Z,955.7817993
2022-10-14T01:12:23.860Z,955.803894
2022-10-14T01:13:01.824Z,955.7631836
2022-10-14T01:14:02.383Z,955.7435913
2022-10-14T01:15:02.868Z,955.7043457
2022-10-14T01:16:03.449Z,955.7148438
2022-10-14T01:17:03.928Z,955.7073364
2022-10-14T01:18:04.462Z,955.692627
2022-10-14T01:19:05.984Z,955.6894531
2022-10-14T01:20:07.299Z,955.638916
2022-10-14T01:21:07.809Z,955.6470337
2022-10-14T01:22:08.326Z,955.6567993
2022-10-14T01:23:08.832Z,955.6443481
2022-10-14T01:24:09.305Z,955.6275024
2022-10-14T01:25:09.863Z,955.5971069
2022-10-14T01:26:10.370Z,955.6248169
2022-10-14T01:27:10.924Z,955.6395264
2022-10-14T01:28:12.042Z,955.6911011
2022-10-14T01:29:13.270Z,955.6297607
2022-10-14T01:30:44.038Z,955.6601563
2022-10-14T01:31:44.610Z,955.6166992
2022-10-14T01:32:45.127Z,955.6101685
2022-10-14T01:33:45.647Z,955.5928955
2022-10-14T01:34:46.136Z,955.6033325
2022-10-14T01:35:46.647Z,955.595459
2022-10-14T01:36:47.167Z,955.5651855
2022-10-14T01:37:47.660Z,955.5896606
2022-10-14T01:38:48.827Z,955.5674438
2022-10-14T01:39:49.307Z,955.5570068
2022-10-14T01:40:49.761Z,955.5211182
2022-10-14T01:41:50.547Z,955.5351563
2022-10-14T01:42:51.103Z,955.538147
2022-10-14T01:43:51.729Z,955.5039063
2022-10-14T01:44:52.251Z,955.5231323
2022-10-14T01:45:52.736Z,955.5103149
2022-10-14T01:46:53.245Z,955.5162354
2022-10-14T01:47:53.792Z,955.4776611
2022-10-14T01:48:55.315Z,955.5041504
2022-10-14T01:49:55.886Z,955.4590454
2022-10-14T01:50:56.394Z,955.4763794
2022-10-14T01:51:56.880Z,955.4746704
2022-10-14T01:52:57.373Z,955.4110718
2022-10-14T01:53:58.630Z,955.4567871
2022-10-14T01:54:59.103Z,955.4421387
2022-10-14T01:55:59.602Z,955.4428101
2022-10-14T01:57:00.109Z,955.4428101
2022-10-14T01:58:00.611Z,955.4039307
2022-10-14T01:59:01.794Z,955.3964233
2022-10-14T02:00:02.338Z,955.4230957
2022-10-14T02:01:03.828Z,955.4078369
2022-10-14T02:02:04.372Z,955.4160156
2022-10-14T02:03:04.825Z,955.388916
2022-10-14T02:04:05.355Z,955.3834229
2022-10-14T02:05:05.852Z,955.3660889
2022-10-14T02:06:06.409Z,955.3987427
2022-10-14T02:07:06.919Z,955.3895874
2022-10-14T02:08:07.416Z,955.3570557
2022-10-14T02:09:08.793Z,955.3504639
2022-10-14T02:10:09.275Z,955.3954468
2022-10-14T02:11:09.826Z,955.3562622
2022-10-14T02:12:10.350Z,955.3612671
2022-10-14T02:13:10.865Z,955.3531494
2022-10-14T02:14:11.432Z,955.3171997
2022-10-14T02:15:11.929Z,955.2720947
2022-10-14T02:16:42.895Z,955.2704468
2022-10-14T02:17:43.454Z,955.2509155
2022-10-14T02:18:43.957Z,955.2704468
2022-10-14T02:19:45.042Z,955.2753906
2022-10-14T02:20:45.512Z,955.2525635
2022-10-14T02:21:45.996Z,955.2459106
2022-10-14T02:22:46.580Z,955.2512207
2022-10-14T02:23:47.798Z,955.2404785
2022-10-14T02:24:48.364Z,955.241394
2022-10-14T02:25:48.823Z,955.2404785
2022-10-14T02:26:49.303Z,955.2717285
2022-10-14T02:27:49.799Z,955.2365723
2022-10-14T02:28:50.773Z,955.243042
2022-10-14T02:29:52.119Z,955.2675171
2022-10-14T02:30:52.631Z,955.2577515
2022-10-14T02:31:53.087Z,955.2489014
2022-10-14T02:32:53.565Z,955.2201538
2022-10-14T02:33:54.088Z,955.241394
2022-10-14T02:34:54.623Z,955.2348633
2022-10-14T02:35:55.141Z,955.1859131
2022-10-14T02:36:55.678Z,955.2260742
2022-10-14T02:37:56.204Z,955.2416992
2022-10-14T02:38:56.687Z,955.149353
2022-10-14T02:39:58.092Z,955.2009277
2022-10-14T02:40:58.641Z,955.2041626
2022-10-14T02:41:59.149Z,955.2525024
2022-10-14T02:42:59.647Z,955.2285767
2022-10-14T02:44:00.156Z,955.2106323
2022-10-14T02:45:00.648Z,955.2181396
2022-10-14T02:46:01.162Z,955.2019043
2022-10-14T02:47:01.708Z,955.1633301
2022-10-14T02:48:02.251Z,955.1636963
2022-10-14T02:49:02.697Z,955.100647
2022-10-14T02:50:04.027Z,955.1098633
2022-10-14T02:51:04.526Z,955.1104736
2022-10-14T02:52:05.060Z,955.1577148
2022-10-14T02:53:05.597Z,955.1447144
2022-10-14T02:54:06.100Z,955.1300049
2022-10-14T02:55:07.286Z,955.1571045
2022-10-14T02:56:07.800Z,955.1854858
2022-10-14T02:57:08.370Z,955.1626587
2022-10-14T02:58:08.897Z,955.1947021
2022-10-14T02:59:09.382Z,955.1414795
2022-10-14T03:00:10.538Z,955.1888428
2022-10-14T03:01:11.058Z,955.1730957
2022-10-14T03:02:11.998Z,955.2087402
2022-10-14T03:03:42.806Z,955.1925049
2022-10-14T03:04:43.294Z,955.1679688
2022-10-14T03:05:43.775Z,955.1859131
2022-10-14T03:06:44.297Z,955.1395874
2022-10-14T03:07:44.773Z,955.1646729
2022-10-14T03:08:45.407Z,955.1327515
2022-10-14T03:09:46.829Z,955.1532593
2022-10-14T03:10:47.350Z,955.1523438
2022-10-14T03:11:47.852Z,955.1436157
2022-10-14T03:12:48.372Z,955.1481323
2022-10-14T03:13:48.893Z,955.1213379
2022-10-14T03:14:49.410Z,955.116394
2022-10-14T03:15:49.946Z,955.1286011
2022-10-14T03:16:50.634Z,955.0910034
2022-10-14T03:17:51.110Z,955.0728149
2022-10-14T03:18:51.605Z,955.0653076
2022-10-14T03:19:52.841Z,955.0587769
2022-10-14T03:20:53.393Z,955.0454712
2022-10-14T03:21:53.867Z,955.0650024
2022-10-14T03:22:54.368Z,955.0144653
2022-10-14T03:23:54.864Z,955.0372925
2022-10-14T03:24:56.305Z,955.0667114
2022-10-14T03:25:56.841Z,955.0356445
2022-10-14T03:26:57.369Z,955.0493774
2022-10-14T03:27:57.865Z,955.0062256
2022-10-14T03:28:58.408Z,955.0095215
2022-10-14T03:29:59.532Z,954.9534302
2022-10-14T03:31:00.010Z,954.9475098
2022-10-14T03:32:00.521Z,954.9257202
2022-10-14T03:33:01.087Z,954.8995361
2022-10-14T03:34:01.604Z,954.876709
2022-10-14T03:35:02.090Z,954.838501
2022-10-14T03:36:02.644Z,954.8685303
2022-10-14T03:37:03.158Z,954.8352051
2022-10-14T03:38:03.660Z,954.8032837
2022-10-14T03:39:04.206Z,954.7628174
2022-10-14T03:40:05.568Z,954.7514038
2022-10-14T03:41:06.132Z,954.7223511
2022-10-14T03:42:06.594Z,954.7089233
2022-10-14T03:43:07.171Z,954.7249756
2022-10-14T03:44:07.713Z,954.6949463
2022-10-14T03:45:08.198Z,954.7112427
2022-10-14T03:46:08.678Z,954.6923218
2022-10-14T03:47:10.020Z,954.6574097
2022-10-14T03:48:10.585Z,954.7112427
2022-10-14T03:49:42.827Z,954.7282715
2022-10-14T03:50:43.304Z,954.7201538
2022-10-14T03:51:43.815Z,954.6972656
2022-10-14T03:52:46.757Z,954.7087402
2022-10-14T03:53:44.865Z,954.7165527
2022-10-14T03:54:46.099Z,954.7507935
2022-10-14T03:55:46.624Z,954.7351685
2022-10-14T03:56:47.127Z,954.7736816
2022-10-14T03:57:47.656Z,954.7579956
2022-10-14T03:58:48.165Z,954.746582
2022-10-14T03:59:49.316Z,954.746582
2022-10-14T04:00:49.818Z,954.7003174
2022-10-14T04:02:20.795Z,954.666748
2022-10-14T04:03:51.337Z,954.6574707
2022-10-14T04:04:51.879Z,954.6895142
2022-10-14T04:05:52.405Z,954.6794434
2022-10-14T04:06:52.926Z,954.6846924
2022-10-14T04:07:53.447Z,954.6950684
2022-10-14T04:08:54.792Z,954.6738892
2022-10-14T04:09:55.793Z,954.6373291
2022-10-14T04:10:56.249Z,954.6422119
2022-10-14T04:11:57.809Z,954.6070557
2022-10-14T04:12:57.358Z,954.5948486
2022-10-14T04:13:57.882Z,954.6151733
2022-10-14T04:14:58.409Z,954.5896606
2022-10-14T04:15:58.887Z,954.5995483
2022-10-14T04:16:59.386Z,954.5529175
2022-10-14T04:17:59.939Z,954.543457
2022-10-14T04:19:00.529Z,954.5332642
2022-10-14T04:20:01.063Z,954.5496216
2022-10-14T04:21:02.044Z,954.5388794
2022-10-14T04:22:02.535Z,954.578064
2022-10-14T04:23:03.079Z,954.522644
2022-10-14T04:24:08.035Z,954.5493774
2022-10-14T04:25:04.828Z,954.5477905
2022-10-14T04:26:05.299Z,954.524231
2022-10-14T04:27:05.874Z,954.5640869
2022-10-14T04:28:06.371Z,954.5745239
2022-10-14T04:29:06.976Z,954.5532837
2022-10-14T04:30:08.353Z,954.5457764
2022-10-14T04:31:08.848Z,954.5882568
2022-10-14T04:32:09.388Z,954.5605469
2022-10-14T04:33:09.901Z,954.5588989
2022-10-14T04:34:10.839Z,954.5742188
2022-10-14T04:35:41.706Z,954.5367432
2022-10-14T04:36:42.230Z,954.5432739
2022-10-14T04:37:42.721Z,954.5383301
2022-10-14T04:38:43.190Z,954.5351563
2022-10-14T04:39:43.661Z,954.5374756
2022-10-14T04:40:45.126Z,954.4960327
2022-10-14T04:41:45.644Z,954.5
2022-10-14T04:42:46.165Z,954.5162354
2022-10-14T04:43:46.679Z,954.4901733
2022-10-14T04:44:47.198Z,954.456543
2022-10-14T04:45:47.726Z,954.4494019
2022-10-14T04:46:48.253Z,954.4124756
2022-10-14T04:47:48.952Z,954.3580322
2022-10-14T04:48:49.297Z,954.3390503
2022-10-14T04:49:49.810Z,954.3831177
2022-10-14T04:50:51.054Z,954.3326416
2022-10-14T04:51:51.591Z,954.3401489
2022-10-14T04:52:52.127Z,954.3463135
2022-10-14T04:53:52.651Z,954.3665771
2022-10-14T04:54:53.789Z,954.3192749
2022-10-14T04:55:54.476Z,954.302002
2022-10-14T04:56:54.975Z,954.2798462
2022-10-14T04:57:55.536Z,954.246582
2022-10-14T04:58:56.073Z,954.2717285
2022-10-14T04:59:57.306Z,954.2880249
2022-10-14T05:00:58.852Z,954.2528076
2022-10-14T05:01:59.421Z,954.2798462
2022-10-14T05:02:59.868Z,954.3115845
2022-10-14T05:04:00.442Z,954.2987671
2022-10-14T05:05:00.981Z,954.2880249
2022-10-14T05:06:01.531Z,954.3392334
2022-10-14T05:07:02.021Z,954.2977905
2022-10-14T05:08:02.538Z,954.3304443
2022-10-14T05:09:03.094Z,954.2701416
2022-10-14T05:10:03.655Z,954.2472534
2022-10-14T05:11:05.084Z,954.2668457
2022-10-14T05:12:05.561Z,954.2397461
2022-10-14T05:13:06.064Z,954.2358398
2022-10-14T05:14:06.568Z,954.2472534
2022-10-14T05:15:07.198Z,954.2384644
2022-10-14T05:16:07.714Z,954.2058105
2022-10-14T05:17:08.185Z,954.1754761
2022-10-14T05:18:08.697Z,954.1796875
2022-10-14T05:19:09.164Z,954.1999512
2022-10-14T05:20:09.640Z,954.2182007
2022-10-14T05:21:41.386Z,954.246582
2022-10-14T05:22:41.873Z,954.2371216
2022-10-14T05:23:42.382Z,954.2165527
2022-10-14T05:24:42.912Z,954.1914063
2022-10-14T05:25:44.033Z,954.1564941
2022-10-14T05:26:44.654Z,954.1749878
2022-10-14T05:27:45.104Z,954.1414795
2022-10-14T05:28:45.710Z,954.170166
2022-10-14T05:29:46.212Z,954.1629639
2022-10-14T05:30:47.566Z,954.1342773
2022-10-14T05:31:48.102Z,954.1482544
2022-10-14T05:32:48.650Z,954.196228
2022-10-14T05:33:49.141Z,954.1998291
2022-10-14T05:34:49.654Z,954.2177124
2022-10-14T05:35:59.224Z,954.1656494
2022-10-14T05:36:50.995Z,954.1326294
2022-10-14T05:37:51.479Z,954.2037354
2022-10-14T05:38:52.002Z,954.2053833
2022-10-14T05:39:52.545Z,954.1906738
2022-10-14T05:40:53.540Z,954.1662598
2022-10-14T05:41:54.034Z,954.1392212
2022-10-14T05:42:54.476Z,954.1417847
2022-10-14T05:43:55.022Z,954.1564941
2022-10-14T05:44:55.556Z,954.1506348
2022-10-14T05:45:56.069Z,954.1173706
2022-10-14T05:46:56.613Z,954.1107788
2022-10-14T05:47:57.084Z,954.1084595
2022-10-14T05:48:57.554Z,954.1107788
2022-10-14T05:49:58.112Z,954.1052246
2022-10-14T05:50:59.575Z,954.0692749
2022-10-14T05:52:00.085Z,954.078125
2022-10-14T05:53:00.574Z,954.0259399
2022-10-14T05:54:01.099Z,954.0324707
2022-10-14T05:55:02.327Z,954.0505981
2022-10-14T05:56:02.841Z,954.0627441
2022-10-14T05:57:03.382Z,954.0653076
2022-10-14T05:58:03.875Z,954.0809937
2022-10-14T05:59:04.415Z,954.1060791
2022-10-14T06:00:04.950Z,954.083252
2022-10-14T06:01:06.013Z,954.0875244
2022-10-14T06:02:06.577Z,954.0734863
2022-10-14T06:03:07.156Z,954.0783691
2022-10-14T06:04:07.634Z,954.1021729
2022-10-14T06:05:08.150Z,954.0982666
2022-10-14T06:06:08.633Z,954.0525513
2022-10-14T06:07:09.121Z,954.1112671
2022-10-14T06:08:40.023Z,954.1226807
2022-10-14T06:09:40.506Z,954.0900879
2022-10-14T06:10:41.809Z,954.0917358
2022-10-14T06:11:42.300Z,954.1063843
2022-10-14T06:12:42.829Z,954.1203613
2022-10-14T06:13:43.359Z,954.0893555
2022-10-14T06:14:43.937Z,954.0567017
2022-10-14T06:15:44.455Z,954.1333618
2022-10-14T06:16:44.941Z,954.1327515
2022-10-14T06:17:45.452Z,954.144165
2022-10-14T06:18:47.355Z,954.1604614
2022-10-14T06:19:46.452Z,954.1646729
2022-10-14T06:20:47.831Z,954.2080688
2022-10-14T06:21:48.307Z,954.1884155
2022-10-14T06:22:48.857Z,954.2014771
2022-10-14T06:23:49.348Z,954.2161865
2022-10-14T06:24:49.852Z,954.2253418
2022-10-14T06:25:51.076Z,954.2390137
2022-10-14T06:26:51.544Z,954.227478
2022-10-14T06:27:52.159Z,954.2781372
2022-10-14T06:28:52.584Z,954.2644043
2022-10-14T06:29:53.108Z,954.2507324
2022-10-14T06:30:54.316Z,954.206543
2022-10-14T06:31:54.835Z,954.1978149
2022-10-14T06:32:55.388Z,954.2134399
2022-10-14T06:33:55.869Z,954.2241211
2022-10-14T06:34:56.379Z,954.2420044
2022-10-14T06:35:56.970Z,954.2567139
2022-10-14T06:37:01.971Z,954.2648926
2022-10-14T06:37:58.012Z,954.2828369
2022-10-14T06:38:58.517Z,954.3065796
2022-10-14T06:39:59.570Z,954.3213501
2022-10-14T06:41:00.111Z,954.3049927
2022-10-14T06:42:01.329Z,954.2768555
2022-10-14T06:43:01.851Z,954.2272949
2022-10-14T06:44:02.374Z,954.2654419
2022-10-14T06:45:02.875Z,954.2583008
2022-10-14T06:46:03.409Z,954.2313843
2022-10-14T06:47:03.881Z,954.201416
2022-10-14T06:48:04.451Z,954.2846069
2022-10-14T06:49:04.944Z,954.2453613
2022-10-14T06:50:05.472Z,954.2196045
2022-10-14T06:51:06.830Z,954.2539063
2022-10-14T06:52:07.311Z,954.2424316
2022-10-14T06:53:07.930Z,954.2244263
2022-10-14T06:54:09.172Z,954.2645264
2022-10-14T06:55:40.638Z,954.2828369
2022-10-14T06:56:41.158Z,954.2393799
2022-10-14T06:57:41.681Z,954.1685181
2022-10-14T06:58:42.240Z,954.1956177
2022-10-14T06:59:42.880Z,954.2494507
2022-10-14T07:00:47.806Z,954.2650146
2022-10-14T07:01:45.925Z,954.284668
2022-10-14T07:02:46.306Z,954.2463989
2022-10-14T07:03:46.996Z,954.2683105
2022-10-14T07:04:47.499Z,954.2668457
2022-10-14T07:05:48.024Z,954.258728
2022-10-14T07:06:49.313Z,954.2570801
2022-10-14T07:07:49.905Z,954.2945557
2022-10-14T07:08:50.675Z,954.3085938
2022-10-14T07:09:51.268Z,954.3275146
2022-10-14T07:10:52.635Z,954.3582764
2022-10-14T07:11:53.148Z,954.319397
2022-10-14T07:12:54.633Z,954.3379517
2022-10-14T07:13:55.111Z,954.3503418
2022-10-14T07:14:55.645Z,954.3529663
2022-10-14T07:15:56.122Z,954.3682861
2022-10-14T07:16:56.668Z,954.3633423
2022-10-14T07:17:57.856Z,954.3218994
2022-10-14T07:18:58.409Z,954.4257202
2022-10-14T07:19:58.921Z,954.4174805
2022-10-14T07:21:00.137Z,954.4459229
2022-10-14T07:22:01.334Z,954.4393921
2022-10-14T07:23:01.879Z,954.4729614
2022-10-14T07:24:02.505Z,954.539856
2022-10-14T07:25:02.880Z,954.4977417
2022-10-14T07:26:03.417Z,954.5499878
2022-10-14T07:28:04.463Z,954.5491943
2022-10-14T07:29:05.055Z,954.5795288
2022-10-14T07:30:05.481Z,954.5942383
2022-10-14T07:31:05.987Z,954.5968018
2022-10-14T07:32:07.181Z,954.5690918
2022-10-14T07:33:07.740Z,954.6182861
2022-10-14T07:34:39.069Z,954.5895386
2022-10-14T07:35:39.595Z,954.5653076
2022-10-14T07:36:40.040Z,954.5946655
2022-10-14T07:37:40.561Z,954.5606079
2022-10-14T07:38:41.127Z,954.5615845
2022-10-14T07:39:41.641Z,954.5223389
2022-10-14T07:40:42.091Z,954.5814209
2022-10-14T07:41:43.540Z,954.5620117
2022-10-14T07:42:44.107Z,954.585144
2022-10-14T07:43:44.617Z,954.5592041
2022-10-14T07:44:45.170Z,954.522583
2022-10-14T07:45:45.663Z,954.5923462
2022-10-14T07:46:46.152Z,954.611145
2022-10-14T07:47:46.656Z,954.5925293
2022-10-14T07:48:56.777Z,954.6090698
2022-10-14T07:49:47.793Z,954.6171875
2022-10-14T07:50:48.424Z,954.675293
2022-10-14T07:51:49.625Z,954.6190796
2022-10-14T07:52:50.505Z,954.6144409
2022-10-14T07:53:51.172Z,954.6079102
2022-10-14T07:54:51.738Z,954.6203003
2022-10-14T07:55:53.091Z,954.5892334
2022-10-14T07:56:53.572Z,954.6710815
2022-10-14T07:57:57.706Z,954.6220093
2022-10-14T07:58:58.969Z,954.6099243
2022-10-14T07:59:59.554Z,954.6206055
2022-10-14T08:01:00.143Z,954.6107788
2022-10-14T08:02:01.774Z,954.5866699
2022-10-14T08:03:02.404Z,954.5610962
2022-10-14T08:04:03.031Z,954.526123
2022-10-14T08:05:25.500Z,954.4846191
2022-10-14T08:06:04.173Z,954.5142212
2022-10-14T08:07:05.060Z,954.5142212
2022-10-14T08:08:06.824Z,954.5462646
2022-10-14T08:09:08.358Z,954.5290527
2022-10-14T08:10:40.247Z,954.5372925
2022-10-14T08:11:41.331Z,954.5283813
2022-10-14T08:12:41.806Z,954.526123
2022-10-14T08:13:45.255Z,954.5080566
2022-10-14T08:14:42.851Z,954.4763184
2022-10-14T08:15:43.437Z,954.5441895
2022-10-14T08:16:43.976Z,954.5314331
2022-10-14T08:17:44.467Z,954.5183105
2022-10-14T08:18:50.036Z,954.5215454
2022-10-14T08:19:50.654Z,954.5011597
2022-10-14T08:20:51.399Z,954.5030518
2022-10-14T08:21:52.841Z,954.512207
2022-10-14T08:22:53.324Z,954.5228271
2022-10-14T08:23:53.802Z,954.5123291
2022-10-14T08:24:54.268Z,954.4714355
2022-10-14T08:25:54.844Z,954.5010986
2022-10-14T08:26:55.354Z,954.5216675
2022-10-14T08:27:55.890Z,954.5682983
2022-10-14T08:28:56.462Z,954.4989014
2022-10-14T08:29:56.844Z,954.5103149
2022-10-14T08:30:58.732Z,954.5219727
2022-10-14T08:31:59.835Z,954.5205688
2022-10-14T08:33:00.354Z,954.5090332
2022-10-14T08:34:00.828Z,954.5128784
2022-10-14T08:35:01.283Z,954.4664307
2022-10-14T08:36:01.935Z,954.4689331
2022-10-14T08:37:02.385Z,954.4468994
2022-10-14T08:38:02.873Z,954.4259644
2022-10-14T08:39:03.430Z,954.4414673
2022-10-14T08:40:03.877Z,954.4083862
2022-10-14T08:41:05.145Z,954.3978271
2022-10-14T08:42:06.846Z,954.4123535
2022-10-14T08:43:07.352Z,954.4191284
2022-10-14T08:44:38.350Z,954.4160156
2022-10-14T08:45:38.832Z,954.3786621
2022-10-14T08:46:39.938Z,954.3991699
2022-10-14T08:47:40.480Z,954.4556274
2022-10-14T08:48:40.970Z,954.4901733
2022-10-14T08:49:41.537Z,954.4804688
2022-10-14T08:50:42.576Z,954.4641113
2022-10-14T08:51:43.211Z,954.5016479
2022-10-14T08:52:44.324Z,954.5140381
2022-10-14T08:53:44.834Z,954.5181274
2022-10-14T08:54:45.359Z,954.5021362
2022-10-14T08:55:45.836Z,954.5216675
2022-10-14T08:56:46.347Z,954.5349731
2022-10-14T08:57:46.826Z,954.5292358
2022-10-14T08:58:47.358Z,954.5465088
2022-10-14T08:59:47.849Z,954.5333862
2022-10-14T09:00:48.411Z,954.5385742
2022-10-14T09:01:49.857Z,954.5008545
2022-10-14T09:02:50.719Z,954.4968872
2022-10-14T09:03:51.259Z,954.4935913
2022-10-14T09:04:51.717Z,954.5320435
2022-10-14T09:05:52.175Z,954.5183105
2022-10-14T09:06:52.670Z,954.5633545
2022-10-14T09:07:53.342Z,954.5704956
2022-10-14T09:08:53.929Z,954.6270142
2022-10-14T09:09:54.477Z,954.5926514
2022-10-14T09:10:55.054Z,954.6311646
2022-10-14T09:11:55.531Z,954.664856
2022-10-14T09:12:55.969Z,954.6983032
2022-10-14T09:13:57.222Z,954.633728
2022-10-14T09:14:57.781Z,954.6066895
2022-10-14T09:15:58.363Z,954.5961914
2022-10-14T09:16:58.989Z,954.5379639
2022-10-14T09:17:59.390Z,954.553772
2022-10-14T09:18:59.846Z,954.5733032
2022-10-14T09:20:00.405Z,954.5634155
2022-10-14T09:21:00.924Z,954.5462646
2022-10-14T09:22:02.413Z,954.5585938
2022-10-14T09:23:02.853Z,954.5601807
2022-10-14T09:24:03.325Z,954.5505981
2022-10-14T09:25:03.922Z,954.4671631
2022-10-14T09:26:04.447Z,954.4942017
2022-10-14T09:27:04.951Z,954.4500122
2022-10-14T09:28:05.428Z,954.4813843
2022-10-14T09:29:05.930Z,954.4723511
2022-10-14T09:30:06.471Z,954.4749756
2022-10-14T09:31:07.451Z,954.4412231
2022-10-14T09:32:38.903Z,954.4927979
2022-10-14T09:33:42.305Z,954.5140381
2022-10-14T09:34:40.549Z,954.4953003
2022-10-14T09:35:41.062Z,954.4807739
2022-10-14T09:36:41.587Z,954.5370483
2022-10-14T09:37:42.105Z,954.461853
2022-10-14T09:38:43.103Z,954.4649048
2022-10-14T09:39:43.594Z,954.5075073
2022-10-14T09:40:44.122Z,954.4902344
2022-10-14T09:41:44.623Z,954.4761963
2022-10-14T09:42:46.110Z,954.4974976
2022-10-14T09:43:46.706Z,954.5220337
2022-10-14T09:44:47.210Z,954.5193481
2022-10-14T09:45:47.781Z,954.5276489
2022-10-14T09:46:48.291Z,954.5204468
2022-10-14T09:47:48.815Z,954.5147095
2022-10-14T09:48:49.287Z,954.4590454
2022-10-14T09:49:49.800Z,954.444397
2022-10-14T09:50:50.626Z,954.4040527
2022-10-14T09:51:51.152Z,954.4213257
2022-10-14T09:52:52.652Z,954.3764038
2022-10-14T09:53:53.139Z,954.4230957
2022-10-14T09:54:53.604Z,954.4135132
2022-10-14T09:55:54.100Z,954.4265137
2022-10-14T09:56:54.563Z,954.4570313
2022-10-14T09:57:55.922Z,954.4431152
2022-10-14T09:58:56.397Z,954.4213867
2022-10-14T09:59:56.874Z,954.4009399
2022-10-14T10:00:57.318Z,954.4076538
2022-10-14T10:01:58.360Z,954.4230957
2022-10-14T10:02:58.957Z,954.3859253
2022-10-14T10:04:00.261Z,954.3778687
2022-10-14T10:05:00.569Z,954.3566895
2022-10-14T10:06:01.088Z,954.3585205
2022-10-14T10:07:01.569Z,954.3620605
2022-10-14T10:08:02.144Z,954.3815918
2022-10-14T10:09:02.642Z,954.3252563
2022-10-14T10:10:03.147Z,954.3217773
2022-10-14T10:11:06.635Z,954.3079834
2022-10-14T10:12:04.050Z,954.3096313
2022-10-14T10:13:05.128Z,954.3236694
2022-10-14T10:14:05.553Z,954.3357544
2022-10-14T10:15:06.096Z,954.3178711
2022-10-14T10:16:37.360Z,954.2973633
2022-10-14T10:17:37.840Z,954.3306885
2022-10-14T10:18:39.126Z,954.3856201
2022-10-14T10:19:39.586Z,954.3954468
2022-10-14T10:20:40.852Z,954.4003296
2022-10-14T10:21:41.347Z,954.3989868
2022-10-14T10:22:42.563Z,954.4208374
2022-10-14T10:23:43.072Z,954.3743896
2022-10-14T10:24:44.332Z,954.4096069
2022-10-14T10:25:44.824Z,954.3481445
2022-10-14T10:26:45.834Z,954.3400269
2022-10-14T10:27:46.299Z,954.3482056
2022-10-14T10:28:46.833Z,954.3488159
2022-10-14T10:29:47.287Z,954.3710327
2022-10-14T10:30:48.664Z,954.3497925
2022-10-14T10:31:49.201Z,954.335022
2022-10-14T10:32:50.680Z,954.307251
2022-10-14T10:33:51.255Z,954.305603
2022-10-14T10:34:51.796Z,954.3253174
2022-10-14T10:35:52.289Z,954.3013916
2022-10-14T10:36:52.806Z,954.3145142
2022-10-14T10:37:53.374Z,954.3007813
2022-10-14T10:38:53.943Z,954.2907104
2022-10-14T10:39:54.421Z,954.2129517
2022-10-14T10:40:54.913Z,954.2097778
2022-10-14T10:41:55.398Z,954.2612305
2022-10-14T10:42:56.612Z,954.2382813
2022-10-14T10:43:57.220Z,954.2033081
2022-10-14T10:44:57.725Z,954.2185669
2022-10-14T10:45:58.276Z,954.1418457
2022-10-14T10:46:58.820Z,954.1525269
2022-10-14T10:47:59.316Z,954.1459351
2022-10-14T10:48:59.831Z,954.1196899
2022-10-14T10:50:00.601Z,954.1248169
2022-10-14T10:51:01.652Z,954.0831299
2022-10-14T10:52:02.233Z,954.0899048
2022-10-14T10:53:03.590Z,954.0465698
2022-10-14T10:54:04.139Z,954.0523682
2022-10-14T10:55:04.606Z,954.0304565
2022-10-14T10:56:05.106Z,953.9796143
2022-10-14T10:57:05.667Z,953.9343872
2022-10-14T10:58:37.697Z,953.9223633
2022-10-14T10:59:38.219Z,953.9068604
2022-10-14T11:00:38.800Z,953.9331055
2022-10-14T11:01:39.411Z,953.932373
2022-10-14T11:02:40.608Z,953.9232788
2022-10-14T11:03:41.096Z,953.8849487
2022-10-14T11:04:42.132Z,953.907959
2022-10-14T11:05:42.763Z,953.9536743
2022-10-14T11:06:43.257Z,953.90979